Terminal Aerodrome Forecast
Issued by NWS Dodge City, KS

Home | Current Version | Previous Version | Graphics & Text | Print | Product List | Glossary Off
Versions: 1 2 3 4 5 6 7 8 9 10 11 12 13 14 15 16 17 18 19 20 21 22 23 24 25 26 27 28 29 30 31 32 33 34 35 36 37 38 39 40 41 42 43 44 45

000
FTUS43 KDDC 172336
TAFDDC
TAF
KDDC 172336Z 1800/1824 11010KT 5SM BR OVC004
      TEMPO 1800/1802 3SM -SN BKN004
     FM180200 12010KT 4SM -SN OVC004
      TEMPO 1802/1806 2SM -SN OVC003
     FM180600 11008KT P6SM OVC010=

USA.gov is the U.S. government's official web portal to all federal, state and local government web resources and services.